Time;durP1;ratioP1;P1;durP2;ratioP2;P2;SDS_P1;SDS_P2;PMS_P1;PMS_P2;Temp;Humidity;BMP_temperature;BMP_pressure;BME280_temperature;BME280_humidity;BME280_pressure;Samples;Min_cycle;Max_cycle;Signal;HPM_P1;HPM_P2
2022/07/19 00:00:32;;;;;;;6.85;3.53;;;30.70;30.40;;;;;;5011430;28;20034;-79
2022/07/19 00:03:00;;;;;;;11.02;4.70;;;30.60;30.20;;;;;;4996251;28;20034;-79
2022/07/19 00:05:26;;;;;;;9.18;5.88;;;30.60;30.40;;;;;;4995933;28;20171;-79
2022/07/19 00:07:51;;;;;;;10.27;4.65;;;30.60;30.80;;;;;;4995370;28;20034;-79
2022/07/19 00:10:19;;;;;;;9.02;4.63;;;30.50;30.50;;;;;;4995792;28;20061;-79
2022/07/19 00:12:46;;;;;;;9.75;4.97;;;30.50;30.50;;;;;;4996120;28;20030;-79
2022/07/19 00:15:13;;;;;;;7.03;4.30;;;30.50;30.70;;;;;;4995921;28;20054;-79
2022/07/19 00:17:42;;;;;;;11.15;4.93;;;30.40;30.60;;;;;;4995452;28;20022;-79
2022/07/19 00:20:13;;;;;;;8.13;5.20;;;30.40;30.70;;;;;;4995940;28;20133;-79
2022/07/19 00:22:38;;;;;;;8.65;4.82;;;30.40;30.70;;;;;;4996243;28;20082;-79
2022/07/19 00:25:05;;;;;;;9.02;4.82;;;30.40;30.80;;;;;;4995311;28;20105;-79
2022/07/19 00:27:30;;;;;;;8.15;4.22;;;30.30;30.70;;;;;;4994196;28;20027;-79
2022/07/19 00:29:56;;;;;;;7.75;4.53;;;30.40;30.60;;;;;;4995426;28;20033;-79
2022/07/19 00:32:22;;;;;;;9.32;4.95;;;30.30;30.90;;;;;;4995312;28;20030;-79
2022/07/19 00:34:47;;;;;;;8.50;4.25;;;30.30;30.80;;;;;;4995722;28;20030;-79
2022/07/19 00:37:13;;;;;;;11.60;4.95;;;30.30;30.80;;;;;;4995837;28;20397;-79
2022/07/19 00:39:39;;;;;;;9.80;4.90;;;30.30;30.80;;;;;;4994759;28;20397;-79
2022/07/19 00:42:05;;;;;;;11.35;4.90;;;30.40;31.00;;;;;;4995026;28;20464;-79
2022/07/19 00:44:30;;;;;;;12.52;5.40;;;30.30;30.90;;;;;;4994591;28;20035;-79
2022/07/19 00:46:56;;;;;;;12.18;5.10;;;30.30;31.00;;;;;;4995384;28;20034;-79
2022/07/19 00:49:22;;;;;;;10.52;5.20;;;30.30;31.00;;;;;;4995119;28;20378;-79
2022/07/19 00:51:53;;;;;;;7.68;4.78;;;30.30;31.10;;;;;;4995763;28;20592;-79
2022/07/19 00:54:23;;;;;;;12.18;5.25;;;30.30;31.00;;;;;;4994341;28;20026;-79
2022/07/19 00:56:50;;;;;;;12.43;5.25;;;30.20;31.00;;;;;;4995114;28;20441;-79
2022/07/19 00:59:17;;;;;;;7.65;4.32;;;30.20;31.10;;;;;;5010700;28;20497;-79
2022/07/19 01:01:44;;;;;;;9.88;5.25;;;30.20;31.10;;;;;;4995735;28;20041;-79
2022/07/19 01:04:10;;;;;;;10.23;4.10;;;30.20;31.10;;;;;;4993352;28;20077;-79
2022/07/19 01:06:37;;;;;;;9.00;4.72;;;30.20;31.00;;;;;;4995505;28;20077;-79
2022/07/19 01:09:04;;;;;;;6.22;4.50;;;30.20;31.10;;;;;;4995550;28;20025;-78
2022/07/19 01:11:32;;;;;;;8.45;4.88;;;30.10;31.10;;;;;;4994988;28;20089;-79
2022/07/19 01:13:58;;;;;;;8.47;4.83;;;30.20;31.20;;;;;;5010258;28;20085;-78
2022/07/19 01:16:24;;;;;;;8.63;5.40;;;30.10;31.20;;;;;;4995072;28;20043;-78
2022/07/19 01:18:50;;;;;;;11.00;4.93;;;30.20;31.30;;;;;;4995676;28;20042;-78
2022/07/19 01:21:20;;;;;;;8.05;4.93;;;30.10;31.20;;;;;;4995415;28;20026;-79
2022/07/19 01:23:46;;;;;;;9.15;5.32;;;30.10;31.30;;;;;;4993431;28;20409;-79
2022/07/19 01:26:12;;;;;;;9.75;5.20;;;30.10;31.20;;;;;;4994821;28;20031;-79
2022/07/19 01:28:38;;;;;;;9.60;4.35;;;30.10;31.10;;;;;;4994577;28;20038;-78
2022/07/19 01:31:04;;;;;;;9.43;4.00;;;30.00;31.20;;;;;;4995461;28;20030;-79
2022/07/19 01:33:29;;;;;;;8.00;4.50;;;30.00;31.20;;;;;;4995313;28;20080;-79
2022/07/19 01:35:55;;;;;;;8.75;5.07;;;30.00;31.40;;;;;;4994791;28;20022;-79
2022/07/19 01:38:21;;;;;;;8.50;4.55;;;30.10;31.30;;;;;;4994112;28;20565;-79
2022/07/19 01:40:46;;;;;;;12.77;5.45;;;30.10;31.10;;;;;;4995268;28;20082;-79
2022/07/19 01:43:12;;;;;;;9.80;4.45;;;30.10;31.20;;;;;;4995890;28;20105;-79
2022/07/19 01:45:37;;;;;;;6.25;3.72;;;30.00;31.10;;;;;;4998515;28;20030;-78
2022/07/19 01:48:04;;;;;;;10.00;4.60;;;30.00;31.10;;;;;;4997257;28;20033;-79
2022/07/19 01:50:30;;;;;;;13.73;4.45;;;30.00;31.10;;;;;;4998038;28;20018;-78
2022/07/19 01:52:56;;;;;;;10.32;4.50;;;29.90;31.10;;;;;;4998487;28;20037;-78
2022/07/19 01:55:22;;;;;;;6.85;4.30;;;29.90;31.10;;;;;;4998041;28;20086;-79
2022/07/19 01:57:49;;;;;;;9.38;4.53;;;30.00;31.30;;;;;;4998370;28;20057;-79
2022/07/19 02:00:15;;;;;;;7.85;4.40;;;29.90;31.20;;;;;;4998504;28;20504;-78
2022/07/19 02:02:46;;;;;;;9.10;4.22;;;29.90;31.20;;;;;;4998443;28;20038;-79
2022/07/19 02:05:12;;;;;;;7.18;3.88;;;29.90;31.20;;;;;;4997678;28;20029;-78
2022/07/19 02:07:39;;;;;;;8.40;4.22;;;29.80;31.30;;;;;;4997289;28;20031;-78
2022/07/19 02:10:05;;;;;;;10.25;4.40;;;29.80;31.30;;;;;;4998180;28;20021;-78
2022/07/19 02:12:31;;;;;;;8.05;4.45;;;29.80;31.40;;;;;;4996781;28;20088;-79
2022/07/19 02:14:57;;;;;;;6.38;3.55;;;29.80;31.40;;;;;;4997839;28;20050;-78
2022/07/19 02:17:23;;;;;;;9.43;3.83;;;29.80;31.50;;;;;;5012183;28;20405;-78
2022/07/19 02:19:53;;;;;;;6.68;4.18;;;29.80;31.60;;;;;;4998079;28;20096;-78
2022/07/19 02:22:18;;;;;;;8.43;4.25;;;29.70;31.60;;;;;;4997771;28;20038;-79
2022/07/19 02:24:44;;;;;;;7.45;4.65;;;29.70;31.80;;;;;;4997862;28;20034;-78
2022/07/19 02:27:10;;;;;;;11.52;4.68;;;29.70;31.90;;;;;;4997709;28;20022;-78
2022/07/19 02:29:37;;;;;;;9.02;4.60;;;29.70;31.90;;;;;;5013179;28;20026;-78
2022/07/19 02:32:03;;;;;;;8.82;4.03;;;29.70;32.00;;;;;;5012261;28;20031;-78
2022/07/19 02:34:28;;;;;;;4.93;3.75;;;29.70;31.80;;;;;;4997163;28;20548;-79
2022/07/19 02:36:56;;;;;;;12.10;4.60;;;29.70;31.80;;;;;;4997740;28;20437;-78
2022/07/19 02:39:22;;;;;;;9.38;3.83;;;29.70;31.90;;;;;;5012899;28;20037;-78
2022/07/19 02:41:47;;;;;;;9.77;4.30;;;29.80;31.80;;;;;;4996993;28;20026;-78
2022/07/19 02:44:13;;;;;;;9.70;4.97;;;29.70;31.90;;;;;;4997389;28;20042;-79
2022/07/19 02:46:38;;;;;;;11.00;4.05;;;29.60;32.10;;;;;;4997452;28;20030;-78
2022/07/19 02:49:04;;;;;;;7.45;4.05;;;29.60;32.10;;;;;;5011260;28;20035;-78
2022/07/19 02:51:30;;;;;;;5.85;3.92;;;29.60;32.10;;;;;;4996916;28;20019;-78
2022/07/19 02:54:02;;;;;;;6.85;3.85;;;29.70;32.20;;;;;;4996806;28;20030;-78
2022/07/19 02:56:28;;;;;;;7.30;3.55;;;29.60;32.20;;;;;;4997644;28;20022;-79
2022/07/19 02:58:54;;;;;;;8.60;4.03;;;29.60;32.30;;;;;;4996648;28;20536;-79
2022/07/19 03:01:19;;;;;;;6.72;3.80;;;29.50;32.40;;;;;;4997119;28;20019;-79
2022/07/19 03:03:47;;;;;;;6.93;3.47;;;29.50;32.60;;;;;;4997115;28;20026;-79
2022/07/19 03:06:14;;;;;;;8.30;3.90;;;29.50;32.60;;;;;;4996656;28;20045;-79
2022/07/19 03:08:40;;;;;;;6.05;3.78;;;29.50;32.60;;;;;;4997063;28;20027;-79
2022/07/19 03:11:05;;;;;;;7.03;4.03;;;29.50;32.70;;;;;;4996658;28;20034;-79
2022/07/19 03:13:31;;;;;;;9.98;3.90;;;29.60;32.70;;;;;;4996949;28;20030;-79
2022/07/19 03:15:57;;;;;;;5.70;3.35;;;29.50;32.80;;;;;;4996275;28;20038;-79
2022/07/19 03:18:22;;;;;;;7.32;3.72;;;29.50;32.90;;;;;;4996929;28;20117;-79
2022/07/19 03:20:48;;;;;;;7.43;4.28;;;29.40;33.00;;;;;;4996838;28;20023;-79
2022/07/19 03:23:14;;;;;;;8.73;4.22;;;29.40;32.90;;;;;;4996923;28;20039;-79
2022/07/19 03:25:39;;;;;;;5.50;3.90;;;29.40;33.10;;;;;;4995422;28;20052;-79
2022/07/19 03:28:07;;;;;;;11.10;3.60;;;29.40;33.10;;;;;;4996640;28;20050;-79
2022/07/19 03:30:33;;;;;;;8.02;3.88;;;29.30;33.30;;;;;;4996109;28;20065;-79
2022/07/19 03:32:59;;;;;;;15.35;5.45;;;29.30;33.40;;;;;;5011968;28;20034;-79
2022/07/19 03:35:25;;;;;;;7.88;3.67;;;29.30;33.50;;;;;;4996083;28;20417;-79
2022/07/19 03:37:51;;;;;;;6.78;3.53;;;29.20;33.70;;;;;;4996657;28;20030;-79
2022/07/19 03:40:16;;;;;;;7.97;3.03;;;29.20;33.80;;;;;;4996013;28;20061;-79
2022/07/19 03:42:42;;;;;;;6.63;3.67;;;29.10;34.00;;;;;;4996337;28;20084;-79
2022/07/19 03:45:15;;;;;;;6.75;3.78;;;29.00;34.00;;;;;;5011289;28;20042;-79
2022/07/19 03:47:41;;;;;;;4.40;3.40;;;29.00;34.10;;;;;;4995479;28;20070;-80
2022/07/19 03:50:07;;;;;;;7.55;4.28;;;29.00;34.10;;;;;;4995189;28;20034;-79
2022/07/19 03:52:33;;;;;;;7.93;4.28;;;29.00;34.10;;;;;;4995830;28;20030;-79
2022/07/19 03:54:58;;;;;;;6.13;4.32;;;29.00;34.30;;;;;;4995307;28;20041;-79
2022/07/19 03:57:24;;;;;;;6.47;4.10;;;28.90;34.40;;;;;;4996079;28;20393;-79
2022/07/19 03:59:49;;;;;;;9.98;4.55;;;28.90;34.50;;;;;;4996199;28;20431;-79
2022/07/19 04:02:15;;;;;;;10.02;5.10;;;28.80;34.70;;;;;;4995416;28;20030;-79
2022/07/19 04:04:41;;;;;;;7.95;3.97;;;28.80;34.70;;;;;;4995146;28;20034;-79
2022/07/19 04:07:06;;;;;;;8.52;3.40;;;28.80;34.80;;;;;;4995344;28;20114;-79
2022/07/19 04:09:32;;;;;;;6.10;3.55;;;28.70;34.90;;;;;;4996192;28;20481;-79
2022/07/19 04:11:58;;;;;;;7.57;3.90;;;28.70;35.10;;;;;;4994857;28;20026;-79
2022/07/19 04:14:23;;;;;;;5.80;3.47;;;28.60;35.30;;;;;;4994789;28;20058;-79
2022/07/19 04:16:49;;;;;;;7.47;4.07;;;28.50;35.50;;;;;;4994315;28;20503;-79
2022/07/19 04:19:19;;;;;;;9.57;3.80;;;28.50;35.50;;;;;;4995883;28;20018;-79
2022/07/19 04:21:45;;;;;;;12.57;4.28;;;28.50;35.70;;;;;;4995236;28;20022;-79
2022/07/19 04:24:10;;;;;;;7.35;3.35;;;28.50;35.70;;;;;;4995941;28;20053;-79
2022/07/19 04:26:36;;;;;;;7.28;3.45;;;28.50;35.70;;;;;;4995348;28;20061;-79
2022/07/19 04:29:02;;;;;;;5.93;3.90;;;28.50;35.80;;;;;;4995791;28;20084;-79
2022/07/19 04:31:27;;;;;;;6.05;3.60;;;28.50;35.80;;;;;;4995909;28;20374;-79
2022/07/19 04:33:53;;;;;;;11.00;4.07;;;28.50;35.90;;;;;;4995319;28;20119;-79
2022/07/19 04:36:21;;;;;;;7.10;3.85;;;28.50;35.80;;;;;;4995793;28;20473;-79
2022/07/19 04:38:46;;;;;;;6.53;4.00;;;28.30;36.10;;;;;;4995119;28;20019;-79
2022/07/19 04:41:12;;;;;;;10.30;5.22;;;28.30;36.30;;;;;;4995201;28;20069;-78
2022/07/19 04:43:38;;;;;;;7.65;4.40;;;28.30;36.40;;;;;;4994526;28;20028;-79
2022/07/19 04:46:03;;;;;;;9.05;4.72;;;28.30;36.50;;;;;;4995790;28;20382;-79
2022/07/19 04:48:29;;;;;;;7.68;3.40;;;28.30;36.60;;;;;;4995165;28;20472;-79
2022/07/19 04:50:55;;;;;;;6.65;3.92;;;28.10;36.70;;;;;;4974903;28;20027;-79
2022/07/19 04:53:21;;;;;;;8.88;3.70;;;28.10;36.80;;;;;;4976064;28;20035;-79
2022/07/19 04:55:46;;;;;;;7.13;4.50;;;28.10;37.00;;;;;;4975568;28;20106;-79
2022/07/19 04:58:12;;;;;;;11.02;4.35;;;28.10;37.00;;;;;;4976695;28;20058;-79
2022/07/19 05:00:37;;;;;;;7.10;3.83;;;28.10;37.00;;;;;;4995593;28;20117;-79
2022/07/19 05:03:05;;;;;;;8.05;3.60;;;28.00;37.10;;;;;;5010424;28;20037;-79
2022/07/19 05:05:31;;;;;;;7.57;4.63;;;28.00;37.30;;;;;;4994960;28;20023;-79
2022/07/19 05:07:56;;;;;;;7.05;4.30;;;28.00;37.30;;;;;;4995579;28;20485;-79
2022/07/19 05:10:22;;;;;;;9.95;4.28;;;28.00;37.40;;;;;;4995566;28;20397;-79
2022/07/19 05:12:48;;;;;;;6.78;3.67;;;27.90;37.50;;;;;;4995265;28;20094;-79
2022/07/19 05:15:13;;;;;;;6.88;3.05;;;27.90;37.70;;;;;;4994273;28;20058;-79
2022/07/19 05:17:39;;;;;;;10.38;3.88;;;27.90;37.70;;;;;;4996953;28;20030;-79
2022/07/19 05:20:06;;;;;;;9.80;4.65;;;27.90;37.80;;;;;;4999127;28;20037;-79
2022/07/19 05:22:32;;;;;;;8.77;4.03;;;27.90;38.00;;;;;;4998549;28;20129;-79
2022/07/19 05:24:59;;;;;;;7.43;4.05;;;27.90;37.90;;;;;;4998857;28;20065;-79
2022/07/19 05:27:24;;;;;;;11.43;4.40;;;27.90;38.00;;;;;;5012720;28;20033;-78
2022/07/19 05:29:50;;;;;;;10.25;4.10;;;27.90;38.00;;;;;;4998972;28;20022;-79
2022/07/19 05:32:17;;;;;;;5.75;3.63;;;28.00;38.00;;;;;;4998315;28;20030;-79
2022/07/19 05:34:42;;;;;;;6.85;4.38;;;28.00;37.90;;;;;;5012690;28;20034;-79
2022/07/19 05:37:08;;;;;;;6.93;3.83;;;28.00;38.10;;;;;;5014002;28;20403;-79
2022/07/19 05:39:34;;;;;;;8.30;4.40;;;28.00;37.80;;;;;;4998974;28;20052;-79
2022/07/19 05:41:59;;;;;;;6.75;3.85;;;28.20;37.90;;;;;;4998702;28;20057;-79
2022/07/19 05:44:25;;;;;;;9.18;3.92;;;28.30;37.70;;;;;;4998075;28;20037;-79
2022/07/19 05:46:51;;;;;;;6.80;4.05;;;28.30;37.70;;;;;;4998653;28;20030;-79
2022/07/19 05:49:16;;;;;;;9.13;5.35;;;28.40;37.60;;;;;;4997603;28;20157;-79
2022/07/19 05:51:43;;;;;;;7.78;4.13;;;28.40;37.70;;;;;;4998541;28;20026;-79
2022/07/19 05:54:09;;;;;;;9.63;4.57;;;28.30;37.70;;;;;;4997173;28;20093;-79
2022/07/19 05:56:35;;;;;;;7.40;4.15;;;28.30;37.80;;;;;;5013346;28;21882;-79
2022/07/19 05:59:01;;;;;;;6.70;3.53;;;28.30;37.90;;;;;;4998680;28;20529;-79
2022/07/19 06:01:27;;;;;;;6.95;4.28;;;28.30;38.00;;;;;;4998371;28;20035;-79
2022/07/19 06:03:57;;;;;;;10.05;4.75;;;28.30;38.30;;;;;;4998217;28;20065;-79
2022/07/19 06:06:24;;;;;;;5.57;3.83;;;28.30;38.20;;;;;;4997952;28;20045;-78
2022/07/19 06:08:50;;;;;;;7.90;3.90;;;28.30;38.20;;;;;;5013077;28;20022;-79
2022/07/19 06:11:17;;;;;;;10.30;4.20;;;28.30;38.40;;;;;;4997703;28;20037;-79
2022/07/19 06:13:44;;;;;;;11.15;3.80;;;28.30;38.40;;;;;;4997961;28;20037;-79
2022/07/19 06:16:11;;;;;;;9.07;3.38;;;28.30;38.50;;;;;;4996938;28;20477;-79
2022/07/19 06:18:37;;;;;;;10.40;4.78;;;28.30;38.50;;;;;;4997962;28;20026;-79
2022/07/19 06:21:07;;;;;;;11.63;4.00;;;28.50;38.30;;;;;;4997728;28;20584;-79
2022/07/19 06:23:32;;;;;;;10.30;4.32;;;28.50;38.50;;;;;;4997917;28;20030;-79
2022/07/19 06:25:58;;;;;;;11.57;4.80;;;28.60;38.40;;;;;;4997434;28;20405;-79
2022/07/19 06:28:25;;;;;;;10.05;4.20;;;28.60;38.40;;;;;;5011482;28;20484;-79
2022/07/19 06:30:50;;;;;;;6.45;4.00;;;28.70;38.50;;;;;;4996568;28;20050;-79
2022/07/19 06:33:16;;;;;;;9.32;4.38;;;28.80;38.30;;;;;;4997343;28;20025;-79
2022/07/19 06:35:42;;;;;;;9.27;4.18;;;28.80;38.30;;;;;;4997564;28;20061;-79
2022/07/19 06:38:08;;;;;;;11.40;4.80;;;28.80;38.30;;;;;;4997260;28;20178;-79
2022/07/19 06:40:33;;;;;;;9.43;4.63;;;28.80;38.40;;;;;;4998081;28;20034;-79
2022/07/19 06:42:59;;;;;;;12.55;4.30;;;28.80;38.20;;;;;;4997557;28;20512;-79
2022/07/19 06:45:25;;;;;;;7.43;4.38;;;28.90;38.40;;;;;;4992432;28;20103;-79
2022/07/19 06:47:51;;;;;;;9.75;4.63;;;28.80;38.60;;;;;;4977999;28;20474;-79
2022/07/19 06:50:17;;;;;;;7.38;4.80;;;28.80;38.80;;;;;;4978120;28;20023;-79
2022/07/19 06:52:43;;;;;;;9.73;5.45;;;29.00;38.80;;;;;;4977889;28;20023;-79
2022/07/19 06:55:09;;;;;;;7.70;4.68;;;29.00;38.60;;;;;;4977916;28;20042;-79
2022/07/19 06:57:34;;;;;;;6.63;4.65;;;28.90;38.60;;;;;;4990184;28;20058;-79
2022/07/19 07:00:00;;;;;;;8.75;5.22;;;28.90;38.60;;;;;;4997160;28;20032;-79
2022/07/19 07:02:26;;;;;;;9.32;6.13;;;29.00;38.80;;;;;;4997303;28;20065;-79
2022/07/19 07:04:52;;;;;;;13.93;6.28;;;29.20;38.70;;;;;;4996159;28;20448;-79
2022/07/19 07:07:17;;;;;;;9.63;5.90;;;29.30;38.60;;;;;;4997099;28;20053;-79
2022/07/19 07:09:43;;;;;;;9.18;6.18;;;29.30;38.50;;;;;;4997144;28;20027;-79
2022/07/19 07:12:09;;;;;;;9.77;6.90;;;29.50;38.20;;;;;;5012331;28;20077;-80
2022/07/19 07:14:35;;;;;;;9.90;6.38;;;29.70;37.90;;;;;;4996412;28;20150;-79
2022/07/19 07:17:01;;;;;;;9.40;6.68;;;29.80;37.90;;;;;;4996912;28;20496;-80
2022/07/19 07:19:26;;;;;;;12.50;7.88;;;29.80;37.70;;;;;;4996825;28;20117;-80
2022/07/19 07:21:52;;;;;;;14.45;8.50;;;30.00;37.80;;;;;;4996440;28;20077;-80
2022/07/19 07:24:18;;;;;;;14.30;8.68;;;29.90;37.50;;;;;;4996095;28;20045;-80
2022/07/19 07:26:43;;;;;;;12.88;8.70;;;30.50;37.40;;;;;;4996737;28;20567;-80
2022/07/19 07:29:09;;;;;;;10.45;7.82;;;31.30;35.70;;;;;;5010389;28;20026;-80
2022/07/19 07:31:36;;;;;;;12.43;10.02;;;32.70;33.80;;;;;;4996370;28;20033;-80
2022/07/19 07:34:02;;;;;;;15.55;10.07;;;34.10;32.20;;;;;;4996635;28;20025;-80
2022/07/19 07:36:28;;;;;;;12.55;9.75;;;35.40;30.30;;;;;;4996732;28;20548;-81
2022/07/19 07:38:54;;;;;;;11.02;9.07;;;36.60;28.70;;;;;;5011845;28;20046;-81
2022/07/19 07:41:20;;;;;;;14.85;9.48;;;37.20;28.10;;;;;;4996041;28;20105;-80
2022/07/19 07:43:46;;;;;;;14.45;9.40;;;37.60;27.20;;;;;;4994887;28;20050;-80
2022/07/19 07:46:11;;;;;;;16.05;11.63;;;37.80;27.00;;;;;;4996264;28;20401;-81
2022/07/19 07:48:37;;;;;;;15.02;11.90;;;37.60;27.40;;;;;;5011531;28;20023;-80
2022/07/19 07:51:03;;;;;;;14.80;11.68;;;37.30;27.70;;;;;;5010202;28;20042;-81
2022/07/19 07:53:30;;;;;;;15.40;12.05;;;37.50;27.70;;;;;;4996309;28;20026;-81
2022/07/19 07:55:56;;;;;;;15.93;13.43;;;38.00;27.20;;;;;;4995826;28;20459;-81
2022/07/19 07:58:22;;;;;;;17.02;15.23;;;38.20;26.90;;;;;;5011158;28;20034;-81
2022/07/19 08:00:48;;;;;;;25.70;18.45;;;38.60;26.80;;;;;;4996063;28;20037;-81
2022/07/19 08:03:13;;;;;;;22.52;17.90;;;38.20;27.30;;;;;;4994664;28;20485;-81
2022/07/19 08:05:39;;;;;;;21.67;18.77;;;38.40;27.20;;;;;;4995584;28;20390;-81
2022/07/19 08:08:05;;;;;;;24.75;18.92;;;38.60;26.90;;;;;;5011670;28;20080;-81
2022/07/19 08:10:32;;;;;;;27.05;19.48;;;38.80;26.80;;;;;;4995783;28;20030;-80
2022/07/19 08:12:58;;;;;;;22.40;20.00;;;38.80;26.90;;;;;;4996010;28;20109;-81
2022/07/19 08:15:24;;;;;;;21.77;19.45;;;39.10;26.50;;;;;;4996054;28;20085;-81
2022/07/19 08:17:50;;;;;;;20.17;18.10;;;39.30;26.40;;;;;;4995820;28;20053;-80
2022/07/19 08:20:16;;;;;;;21.95;18.63;;;39.40;26.30;;;;;;4995545;28;20033;-81
2022/07/19 08:22:42;;;;;;;22.48;19.27;;;39.80;25.70;;;;;;4995296;28;20030;-81
2022/07/19 08:25:08;;;;;;;25.13;20.63;;;40.10;25.60;;;;;;4995891;28;20172;-81
2022/07/19 08:27:34;;;;;;;21.35;19.08;;;40.30;25.30;;;;;;4995825;28;20019;-80
2022/07/19 08:30:01;;;;;;;25.98;19.90;;;40.60;24.90;;;;;;4995686;28;20362;-80
2022/07/19 08:32:27;;;;;;;21.02;18.75;;;40.70;25.50;;;;;;4995367;28;20037;-81
2022/07/19 08:34:52;;;;;;;22.73;20.38;;;41.10;24.80;;;;;;4996045;28;20023;-80
2022/07/19 08:37:18;;;;;;;22.80;20.60;;;41.60;24.80;;;;;;4995736;28;20057;-81
2022/07/19 08:39:44;;;;;;;23.48;20.95;;;41.40;24.10;;;;;;4995477;28;20034;-80
2022/07/19 08:42:09;;;;;;;22.58;20.30;;;41.40;24.60;;;;;;4995312;28;20030;-81
2022/07/19 08:44:39;;;;;;;21.88;19.70;;;41.90;24.20;;;;;;4994537;28;20428;-81
2022/07/19 08:47:06;;;;;;;21.10;19.20;;;42.30;23.80;;;;;;4995792;28;20070;-81
2022/07/19 08:49:33;;;;;;;22.95;20.52;;;42.60;23.30;;;;;;4995202;28;20082;-81
2022/07/19 08:51:59;;;;;;;24.33;21.83;;;42.90;23.60;;;;;;5012743;28;20478;-81
2022/07/19 08:54:25;;;;;;;22.95;19.42;;;43.30;23.20;;;;;;5014472;28;20069;-81
2022/07/19 08:59:35;;;;;;;25.02;22.70;;;42.90;23.60;;;;;;4999587;28;20064;-81
2022/07/19 09:02:01;;;;;;;25.13;22.58;;;42.10;24.60;;;;;;4999429;28;20060;-81
2022/07/19 09:04:30;;;;;;;26.63;22.85;;;41.90;25.30;;;;;;4999123;28;20037;-81
2022/07/19 09:06:57;;;;;;;24.45;21.13;;;41.80;25.70;;;;;;4999525;28;20197;-81
2022/07/19 09:09:32;;;;;;;25.42;22.70;;;42.20;25.30;;;;;;4999023;28;20026;-81
2022/07/19 09:12:00;;;;;;;25.02;22.35;;;41.30;26.20;;;;;;5008903;28;20470;-80
2022/07/19 09:14:30;;;;;;;21.92;19.75;;;41.10;26.90;;;;;;4986000;28;20072;-81
2022/07/19 09:16:57;;;;;;;21.80;19.80;;;41.30;27.20;;;;;;4998664;28;20038;-81
2022/07/19 09:19:24;;;;;;;20.73;18.05;;;41.90;26.90;;;;;;4997654;28;20117;-81
2022/07/19 09:21:54;;;;;;;19.63;17.58;;;41.80;27.10;;;;;;4999261;28;20033;-81
2022/07/19 09:24:21;;;;;;;17.65;15.85;;;41.70;27.80;;;;;;4997855;28;20489;-82
2022/07/19 09:27:07;;;;;;;17.93;15.97;;;41.80;27.40;;;;;;4998666;28;20034;-81
2022/07/19 09:29:36;;;;;;;18.63;14.80;;;41.90;27.30;;;;;;4998487;28;20054;-81
2022/07/19 09:32:04;;;;;;;16.48;14.77;;;41.90;27.50;;;;;;4999159;28;20098;-81
2022/07/19 09:34:34;;;;;;;15.95;14.35;;;42.30;27.50;;;;;;4998209;28;20034;-80
2022/07/19 09:37:25;;;;;;;17.48;14.45;;;42.00;27.60;;;;;;4998625;28;20061;-81
2022/07/19 09:39:53;;;;;;;16.75;14.10;;;41.70;28.10;;;;;;4998370;28;20068;-80
2022/07/19 09:42:45;;;;;;;14.38;12.88;;;41.90;27.80;;;;;;4998819;28;20053;-81
2022/07/19 09:45:17;;;;;;;18.20;14.05;;;40.40;29.70;;;;;;4993261;28;20153;-80
2022/07/19 09:47:48;;;;;;;15.80;14.15;;;38.60;32.00;;;;;;4994343;28;20034;-81
2022/07/19 09:50:18;;;;;;;15.90;13.73;;;37.90;33.40;;;;;;4997167;28;20026;-81
2022/07/19 09:52:46;;;;;;;15.27;13.50;;;37.80;34.00;;;;;;5013548;28;20026;-81
2022/07/19 09:55:12;;;;;;;16.65;13.88;;;37.60;34.20;;;;;;4998131;28;20069;-81
2022/07/19 09:57:44;;;;;;;17.30;13.10;;;38.30;33.40;;;;;;5012954;28;20402;-81
2022/07/19 10:00:11;;;;;;;15.23;12.82;;;39.30;32.50;;;;;;5012504;28;20074;-81
2022/07/19 10:02:43;;;;;;;14.48;12.48;;;40.30;31.00;;;;;;4997831;28;20058;-80
2022/07/19 10:05:10;;;;;;;14.40;12.77;;;40.80;30.30;;;;;;5013292;28;20029;-81
2022/07/19 10:07:36;;;;;;;14.43;12.00;;;39.30;31.90;;;;;;4997897;28;20503;-80
2022/07/19 10:10:07;;;;;;;15.68;13.02;;;39.60;31.50;;;;;;4998291;28;20089;-81
2022/07/19 10:12:34;;;;;;;17.48;12.15;;;39.20;32.50;;;;;;5012450;28;20026;-81
2022/07/19 10:14:59;;;;;;;14.63;12.88;;;38.40;33.10;;;;;;4997823;28;20046;-81
2022/07/19 10:17:45;;;;;;;14.48;12.13;;;37.50;34.60;;;;;;4998133;28;20031;-80
2022/07/19 10:20:16;;;;;;;17.08;12.00;;;37.50;34.80;;;;;;4997745;28;20030;-80
2022/07/19 10:22:41;;;;;;;20.10;11.80;;;37.70;34.60;;;;;;4996898;28;20090;-80
2022/07/19 10:25:17;;;;;;;12.43;11.20;;;38.70;33.10;;;;;;4997440;28;20460;-81
2022/07/19 10:27:55;;;;;;;11.88;10.15;;;39.20;32.10;;;;;;4996558;28;20022;-81
2022/07/19 10:30:26;;;;;;;15.32;10.63;;;38.40;33.20;;;;;;4996499;28;20569;-81
2022/07/19 10:32:55;;;;;;;12.23;9.50;;;37.20;34.50;;;;;;4997079;28;20037;-81
2022/07/19 10:35:27;;;;;;;13.68;10.23;;;36.00;36.70;;;;;;5013157;28;20396;-81
2022/07/19 10:38:05;;;;;;;12.13;9.93;;;35.00;38.40;;;;;;4997324;28;20109;-80
2022/07/19 10:40:56;;;;;;;11.43;9.20;;;34.10;40.00;;;;;;4997814;28;20109;-80
2022/07/19 10:43:22;;;;;;;14.77;9.88;;;33.40;41.50;;;;;;4997612;28;20061;-80
2022/07/19 10:45:57;;;;;;;18.45;10.13;;;32.60;44.00;;;;;;4997168;28;20022;-80
2022/07/19 10:48:36;;;;;;;13.88;9.70;;;32.30;47.10;;;;;;4997365;28;20088;-80
2022/07/19 10:51:02;;;;;;;14.70;9.32;;;31.30;49.80;;;;;;4997270;28;20026;-80
2022/07/19 10:53:40;;;;;;;13.52;9.75;;;30.40;51.90;;;;;;4996973;28;20026;-80
2022/07/19 10:56:34;;;;;;;15.25;9.70;;;29.90;52.40;;;;;;4997304;28;20085;-80
2022/07/19 10:59:09;;;;;;;14.80;9.55;;;29.60;53.10;;;;;;4991092;28;20156;-79
2022/07/19 11:01:36;;;;;;;14.02;10.60;;;29.10;54.80;;;;;;4993698;28;20018;-80
2022/07/19 11:04:28;;;;;;;14.88;10.45;;;28.90;55.90;;;;;;4997146;28;20030;-79
2022/07/19 11:07:11;;;;;;;18.35;10.57;;;28.80;55.70;;;;;;4986857;28;20065;-79
2022/07/19 11:09:52;;;;;;;17.15;10.00;;;28.50;56.00;;;;;;4985437;28;20049;-79
2022/07/19 11:12:28;;;;;;;15.55;9.88;;;28.30;56.80;;;;;;4997213;28;20370;-79
2022/07/19 11:14:56;;;;;;;13.95;9.80;;;28.60;55.90;;;;;;5011310;28;20061;-79
2022/07/19 11:17:21;;;;;;;17.08;10.25;;;28.80;55.50;;;;;;5009150;28;20034;-80
2022/07/19 11:20:08;;;;;;;14.60;9.57;;;28.80;55.90;;;;;;4996920;28;20034;-80
2022/07/19 11:22:36;;;;;;;17.65;10.00;;;28.60;56.90;;;;;;5011501;28;20101;-80
2022/07/19 11:25:03;;;;;;;13.50;9.38;;;28.60;57.70;;;;;;4996473;28;20105;-80
2022/07/19 11:27:30;;;;;;;16.83;9.38;;;28.40;58.80;;;;;;4995563;28;20023;-79
2022/07/19 11:29:57;;;;;;;16.00;9.55;;;28.10;59.30;;;;;;4996249;28;20513;-79
2022/07/19 11:32:23;;;;;;;16.40;9.45;;;28.10;59.90;;;;;;5012067;28;20022;-79
2022/07/19 11:34:59;;;;;;;16.17;9.30;;;28.00;60.10;;;;;;4996707;28;20504;-79
2022/07/19 11:37:30;;;;;;;14.27;8.25;;;27.70;60.60;;;;;;4996150;28;20034;-79
2022/07/19 11:39:57;;;;;;;16.70;9.73;;;27.50;60.60;;;;;;4996566;28;20026;-80
2022/07/19 11:42:36;;;;;;;13.50;8.20;;;27.70;60.90;;;;;;4994090;28;20038;-80
2022/07/19 11:45:13;;;;;;;16.47;9.37;;;27.70;60.30;;;;;;5011505;28;20161;-80
2022/07/19 11:47:50;;;;;;;14.27;8.32;;;27.50;60.80;;;;;;4996554;28;20027;-80
2022/07/19 11:50:18;;;;;;;13.00;8.60;;;27.40;61.00;;;;;;5010171;28;20041;-80
2022/07/19 11:52:43;;;;;;;17.55;9.40;;;27.90;60.50;;;;;;4996351;28;20022;-80
2022/07/19 11:55:10;;;;;;;14.32;9.93;;;28.00;59.00;;;;;;4996343;28;20504;-80
2022/07/19 11:57:36;;;;;;;17.30;8.98;;;28.10;58.70;;;;;;5010001;28;20038;-80
2022/07/19 12:00:03;;;;;;;15.95;9.38;;;28.00;58.90;;;;;;4996222;28;20010;-79
2022/07/19 12:02:29;;;;;;;13.68;9.40;;;28.30;58.00;;;;;;4995539;28;20030;-80
2022/07/19 12:04:55;;;;;;;14.05;9.25;;;28.50;57.30;;;;;;4995951;28;20025;-79
2022/07/19 12:07:21;;;;;;;14.50;9.52;;;28.50;57.70;;;;;;4996623;28;20113;-79
2022/07/19 12:09:47;;;;;;;14.23;9.25;;;28.50;57.70;;;;;;4995639;28;20026;-79
2022/07/19 12:12:15;;;;;;;20.15;10.18;;;28.60;56.90;;;;;;4995996;28;20022;-80
2022/07/19 12:14:41;;;;;;;15.43;9.82;;;28.60;57.00;;;;;;4994962;28;20147;-79
2022/07/19 12:17:14;;;;;;;16.48;9.57;;;28.70;56.60;;;;;;4995622;28;20092;-80
2022/07/19 12:19:43;;;;;;;15.82;9.60;;;28.60;56.20;;;;;;4995829;28;20482;-80
2022/07/19 12:22:27;;;;;;;16.10;10.00;;;28.50;56.30;;;;;;4994646;28;20033;-80
2022/07/19 12:24:53;;;;;;;18.23;10.25;;;28.60;56.00;;;;;;4995348;28;20054;-80
2022/07/19 12:27:20;;;;;;;16.63;9.10;;;28.60;56.20;;;;;;4995112;28;20026;-79
2022/07/19 12:29:50;;;;;;;14.82;9.23;;;28.80;55.10;;;;;;4994759;28;20077;-80
2022/07/19 12:32:25;;;;;;;14.85;8.32;;;29.20;54.30;;;;;;4995403;28;20086;-80
2022/07/19 12:34:56;;;;;;;14.88;9.02;;;29.30;53.70;;;;;;4995478;28;20030;-79
2022/07/19 12:37:30;;;;;;;16.85;10.10;;;29.50;53.60;;;;;;4995209;28;20440;-80
2022/07/19 12:39:56;;;;;;;18.05;8.35;;;29.60;53.00;;;;;;5011087;28;20412;-80
2022/07/19 12:42:21;;;;;;;16.50;9.35;;;29.50;53.30;;;;;;4995170;28;20026;-79